Time;durP1;ratioP1;P1;durP2;ratioP2;P2;SDS_P1;SDS_P2;PMS_P1;PMS_P2;Temp;Humidity;BMP_temperature;BMP_pressure;BME280_temperature;BME280_humidity;BME280_pressure;Samples;Min_cycle;Max_cycle;Signal;HPM_P1;HPM_P2
2022/04/09 00:00:38;;;;;;;8.77;2.90;;;;;;;2.14;99.54;99185.31;5020406;28;20071;-82
2022/04/09 00:03:04;;;;;;;4.57;2.60;;;;;;;2.09;99.23;99189.63;5015381;28;20049;-82
2022/04/09 00:05:31;;;;;;;6.10;2.22;;;;;;;2.05;99.98;99186.16;5018702;28;20099;-83
2022/04/09 00:07:57;;;;;;;6.82;2.40;;;;;;;2.04;100.00;99197.34;5019082;28;20159;-83
2022/04/09 00:10:24;;;;;;;10.90;2.22;;;;;;;2.08;100.00;99191.31;5017169;28;20048;-83
2022/04/09 00:12:50;;;;;;;6.55;2.05;;;;;;;2.19;99.93;99204.28;5000442;28;20312;-83
2022/04/09 00:15:17;;;;;;;8.48;2.17;;;;;;;2.26;99.33;99202.56;5004833;28;20135;-83
2022/04/09 00:17:47;;;;;;;9.85;2.38;;;;;;;2.23;98.86;99200.81;5022266;28;20049;-83
2022/04/09 00:20:17;;;;;;;4.22;2.45;;;;;;;2.17;98.78;99205.13;5019472;28;20057;-82
2022/04/09 00:22:45;;;;;;;8.07;1.85;;;;;;;2.11;99.67;99209.41;5029557;28;20049;-83
2022/04/09 00:25:14;;;;;;;15.80;1.92;;;;;;;2.06;99.94;99208.53;5034616;28;20097;-83
2022/04/09 00:27:42;;;;;;;3.38;1.67;;;;;;;2.01;99.94;99204.19;5034368;28;20049;-83
2022/04/09 00:30:10;;;;;;;4.03;2.05;;;;;;;1.98;100.00;99215.38;5021573;28;20064;-83
2022/04/09 00:32:37;;;;;;;12.85;2.05;;;;;;;1.93;100.00;99219.66;5017684;28;20045;-83
2022/04/09 00:35:05;;;;;;;4.57;2.13;;;;;;;1.92;100.00;99220.56;5029917;28;20122;-83
2022/04/09 00:37:33;;;;;;;9.27;2.08;;;;;;;1.86;100.00;99228.25;5033021;28;20415;-83
2022/04/09 00:40:00;;;;;;;7.30;2.28;;;;;;;1.79;100.00;99235.97;5032607;28;20366;-83
2022/04/09 00:42:26;;;;;;;12.48;2.10;;;;;;;1.77;100.00;99234.25;5015190;28;20037;-83
2022/04/09 00:44:55;;;;;;;4.95;1.42;;;;;;;1.76;100.00;99248.88;5033400;28;20045;-83
2022/04/09 00:47:21;;;;;;;9.90;2.17;;;;;;;1.72;100.00;99244.56;5035818;28;20053;-83
2022/04/09 00:49:48;;;;;;;4.95;1.80;;;;;;;1.73;100.00;99250.56;5031356;28;20041;-83
2022/04/09 00:52:15;;;;;;;5.25;1.60;;;;;;;1.72;100.00;99251.41;5032452;28;20486;-83
2022/04/09 00:54:43;;;;;;;2.83;1.38;;;;;;;1.73;100.00;99264.31;5027646;28;20143;-83
2022/04/09 00:57:10;;;;;;;5.97;1.63;;;;;;;1.77;100.00;99260.03;5019219;28;20059;-83
2022/04/09 00:59:43;;;;;;;4.95;1.63;;;;;;;1.90;100.00;99263.53;5051519;28;20045;-83
2022/04/09 01:02:12;;;;;;;3.95;1.58;;;;;;;2.02;100.00;99268.75;5032940;28;20055;-83
2022/04/09 01:04:42;;;;;;;10.95;2.03;;;;;;;2.14;100.00;99267.94;5012910;28;20045;-83
2022/04/09 01:07:09;;;;;;;17.17;3.03;;;;;;;2.22;100.00;99275.69;5017332;28;20077;-83
2022/04/09 01:09:36;;;;;;;7.40;1.58;;;;;;;2.19;100.00;99276.56;5018008;28;20068;-83
2022/04/09 01:12:03;;;;;;;3.13;1.75;;;;;;;2.19;100.00;99283.41;5014797;28;20225;-82
2022/04/09 01:14:34;;;;;;;4.53;1.73;;;;;;;2.21;100.00;99290.31;5031549;28;20045;-83
2022/04/09 01:17:00;;;;;;;4.28;1.73;;;;;;;2.24;100.00;99284.31;5035829;28;20067;-83
2022/04/09 01:19:27;;;;;;;9.75;2.08;;;;;;;2.33;100.00;99288.63;5033742;28;20064;-82
2022/04/09 01:21:59;;;;;;;9.13;1.85;;;;;;;2.40;100.00;99293.81;5016537;28;20044;-83
2022/04/09 01:24:25;;;;;;;11.70;2.20;;;;;;;2.47;100.00;99297.28;5029570;28;20048;-83
2022/04/09 01:26:52;;;;;;;3.95;1.17;;;;;;;2.53;100.00;99302.47;5016688;28;20518;-83
2022/04/09 01:29:18;;;;;;;3.40;1.80;;;;;;;2.63;100.00;99313.66;5018323;28;20049;-83
2022/04/09 01:31:45;;;;;;;5.07;1.50;;;;;;;2.69;100.00;99315.41;5019055;28;20052;-83
2022/04/09 01:34:14;;;;;;;4.20;1.75;;;;;;;2.65;99.63;99317.97;5029196;28;20053;-83
2022/04/09 01:36:41;;;;;;;3.97;1.27;;;;;;;2.58;100.00;99318.84;5031527;28;20477;-83
2022/04/09 01:39:07;;;;;;;2.88;1.45;;;;;;;2.48;100.00;99330.00;5032135;28;20055;-83
2022/04/09 01:41:34;;;;;;;7.25;2.20;;;;;;;2.41;100.00;99330.81;5014832;28;20048;-83
2022/04/09 01:44:00;;;;;;;7.72;1.80;;;;;;;2.34;100.00;99337.69;5045198;28;20375;-83
2022/04/09 01:46:27;;;;;;;10.40;1.95;;;;;;;2.29;100.00;99334.22;5018167;28;20613;-83
2022/04/09 01:48:53;;;;;;;5.20;1.83;;;;;;;2.19;100.00;99345.38;5033309;28;20555;-83
2022/04/09 01:51:20;;;;;;;6.10;1.80;;;;;;;2.10;100.00;99344.50;5015883;28;20052;-83
2022/04/09 01:53:46;;;;;;;5.00;1.90;;;;;;;2.02;100.00;99356.53;5011652;28;20400;-83
2022/04/09 01:56:13;;;;;;;10.35;1.95;;;;;;;1.99;100.00;99356.47;5032295;28;20041;-82
2022/04/09 01:58:39;;;;;;;10.05;2.50;;;;;;;1.97;100.00;99366.81;5016760;28;20053;-83
2022/04/09 02:01:06;;;;;;;3.05;1.55;;;;;;;1.98;100.00;99371.13;5021980;28;20056;-83
2022/04/09 02:03:33;;;;;;;12.70;3.45;;;;;;;2.09;100.00;99378.06;5017365;28;20045;-83
2022/04/09 02:05:59;;;;;;;4.93;1.45;;;;;;;2.11;100.00;99379.78;5021774;28;20052;-83
2022/04/09 02:08:25;;;;;;;4.93;1.70;;;;;;;2.08;100.00;99373.75;5035656;28;20041;-83
2022/04/09 02:10:52;;;;;;;8.77;1.75;;;;;;;2.04;100.00;99390.94;5033102;28;20045;-83
2022/04/09 02:13:18;;;;;;;8.43;1.83;;;;;;;1.98;100.00;99385.72;5030974;28;20052;-83
2022/04/09 02:15:45;;;;;;;6.97;2.58;;;;;;;2.00;100.00;99389.19;5039139;28;20128;-83
2022/04/09 02:18:12;;;;;;;8.10;1.95;;;;;;;2.09;100.00;99394.41;5036002;28;20064;-83
2022/04/09 02:20:38;;;;;;;5.47;2.10;;;;;;;2.21;100.00;99397.91;5037255;28;20088;-83
2022/04/09 02:23:05;;;;;;;5.05;2.20;;;;;;;2.35;100.00;99401.41;5031533;28;20048;-83
2022/04/09 02:25:31;;;;;;;7.95;1.52;;;;;;;2.47;100.00;99400.59;5038922;28;20061;-83
2022/04/09 02:27:58;;;;;;;4.10;1.60;;;;;;;2.57;100.00;99412.69;5021332;28;20056;-81
2022/04/09 02:30:24;;;;;;;9.18;1.95;;;;;;;2.61;100.00;99408.41;5018516;28;20049;-83
2022/04/09 02:32:53;;;;;;;13.82;3.05;;;;;;;2.60;100.00;99414.41;5036073;28;20044;-83
2022/04/09 02:35:22;;;;;;;6.65;1.85;;;;;;;2.58;100.00;99422.16;5034614;28;20601;-83
2022/04/09 02:37:49;;;;;;;5.57;2.13;;;;;;;2.56;100.00;99426.47;5016632;28;20055;-83
2022/04/09 02:40:16;;;;;;;12.35;2.45;;;;;;;2.57;100.00;99437.63;5021574;28;20522;-83
2022/04/09 02:42:43;;;;;;;11.15;1.95;;;;;;;2.46;100.00;99435.91;5021032;28;20049;-82
2022/04/09 02:45:12;;;;;;;9.55;2.42;;;;;;;2.39;100.00;99436.72;5018796;28;20304;-83
2022/04/09 02:47:39;;;;;;;4.70;2.13;;;;;;;2.27;100.00;99445.28;5037811;28;20041;-83
2022/04/09 02:50:07;;;;;;;4.60;2.08;;;;;;;2.17;100.00;99448.66;5020485;28;20041;-83
2022/04/09 02:52:38;;;;;;;7.40;1.98;;;;;;;2.11;100.00;99456.34;5022539;28;20077;-82
2022/04/09 02:55:06;;;;;;;9.07;1.83;;;;;;;2.08;100.00;99464.09;5023280;28;20148;-82
2022/04/09 02:57:37;;;;;;;8.00;2.10;;;;;;;2.06;100.00;99463.22;5023948;28;20135;-82
2022/04/09 03:00:07;;;;;;;11.60;2.90;;;;;;;2.03;100.00;99470.94;5032762;28;20045;-82
2022/04/09 03:02:37;;;;;;;10.60;4.00;;;;;;;2.04;100.00;99478.69;5041863;28;20250;-82
2022/04/09 03:05:07;;;;;;;6.53;1.60;;;;;;;2.10;100.00;99488.19;5020953;28;20056;-82
2022/04/09 03:07:34;;;;;;;4.30;2.03;;;;;;;2.19;100.00;99497.72;5023751;28;20060;-83
2022/04/09 03:10:01;;;;;;;7.20;1.63;;;;;;;2.27;100.00;99499.50;5025531;28;20041;-82
2022/04/09 03:12:28;;;;;;;7.75;2.28;;;;;;;2.33;100.00;99493.50;5035437;28;20148;-82
2022/04/09 03:14:54;;;;;;;5.80;2.20;;;;;;;2.33;100.00;99496.06;5037286;28;20049;-82
2022/04/09 03:17:21;;;;;;;11.80;2.10;;;;;;;2.34;100.00;99507.28;5040744;28;20053;-82
2022/04/09 03:19:47;;;;;;;7.15;2.13;;;;;;;2.31;100.00;99506.41;5039075;28;20071;-82
2022/04/09 03:22:14;;;;;;;4.85;2.40;;;;;;;2.31;100.00;99514.16;5034015;28;20063;-82
2022/04/09 03:24:40;;;;;;;11.63;1.92;;;;;;;2.24;100.00;99519.28;5022814;28;20075;-82
2022/04/09 03:27:07;;;;;;;7.03;2.05;;;;;;;2.15;100.00;99527.81;5026445;28;20456;-82
2022/04/09 03:29:33;;;;;;;5.68;1.40;;;;;;;2.08;100.00;99526.91;5023062;28;20103;-82
2022/04/09 03:32:01;;;;;;;7.30;1.55;;;;;;;1.98;100.00;99528.56;5010438;28;20049;-82
2022/04/09 03:34:29;;;;;;;8.40;2.55;;;;;;;1.90;100.00;99534.50;5020750;28;20044;-82
2022/04/09 03:36:55;;;;;;;3.13;1.75;;;;;;;1.87;100.00;99537.06;5034696;28;20049;-82
2022/04/09 03:39:22;;;;;;;7.07;1.85;;;;;;;1.92;100.00;99537.97;5018321;28;20582;-82
2022/04/09 03:41:48;;;;;;;12.85;2.53;;;;;;;1.96;100.00;99544.91;5035614;28;20051;-82
2022/04/09 03:44:15;;;;;;;7.65;2.50;;;;;;;1.98;100.00;99544.06;5033902;28;20049;-82
2022/04/09 03:46:41;;;;;;;3.65;1.75;;;;;;;1.93;100.00;99545.72;5025908;28;20072;-82
2022/04/09 03:49:08;;;;;;;6.50;2.13;;;;;;;1.90;100.00;99545.69;5024277;28;20103;-82
2022/04/09 03:51:35;;;;;;;11.73;2.40;;;;;;;1.89;100.00;99556.00;5026487;28;20470;-83
2022/04/09 03:54:01;;;;;;;7.78;2.22;;;;;;;1.87;100.00;99565.47;5017581;28;20049;-82
2022/04/09 03:56:28;;;;;;;7.57;2.70;;;;;;;1.81;100.00;99558.50;5042612;28;20534;-82
2022/04/09 03:58:54;;;;;;;17.35;2.60;;;;;;;1.76;100.00;99573.09;5022770;28;20632;-82
2022/04/09 04:01:24;;;;;;;10.18;2.85;;;;;;;1.73;100.00;99573.91;5024522;28;20052;-83
2022/04/09 04:03:52;;;;;;;16.02;3.78;;;;;;;1.77;100.00;99583.44;5016817;28;20081;-82
2022/04/09 04:06:18;;;;;;;3.35;1.95;;;;;;;1.78;100.00;99582.56;5035260;28;20136;-82
2022/04/09 04:08:45;;;;;;;4.50;1.48;;;;;;;1.83;100.00;99589.53;5020902;28;20060;-82
2022/04/09 04:11:11;;;;;;;7.22;1.65;;;;;;;1.81;100.00;99581.75;5038007;28;20061;-82
2022/04/09 04:13:38;;;;;;;7.60;2.35;;;;;;;1.76;100.00;99593.72;5032746;28;20045;-82
2022/04/09 04:16:06;;;;;;;6.82;1.73;;;;;;;1.71;100.00;99596.28;5040577;28;20048;-82
2022/04/09 04:18:32;;;;;;;3.25;2.40;;;;;;;1.66;100.00;99600.53;5014157;28;20295;-82
2022/04/09 04:20:59;;;;;;;5.60;1.67;;;;;;;1.62;100.00;99606.50;5028878;28;20071;-83
2022/04/09 04:23:25;;;;;;;8.25;1.85;;;;;;;1.56;100.00;99616.75;5037157;28;20044;-82
2022/04/09 04:25:52;;;;;;;6.53;1.75;;;;;;;1.56;100.00;99622.75;5054917;28;20144;-82
2022/04/09 04:28:18;;;;;;;5.57;1.70;;;;;;;1.55;100.00;99620.19;5040553;28;20049;-82
2022/04/09 04:30:44;;;;;;;9.35;2.33;;;;;;;1.52;100.00;99622.72;5023830;28;20057;-81
2022/04/09 04:33:11;;;;;;;8.13;1.75;;;;;;;1.55;100.00;99623.63;5039779;28;20056;-82
2022/04/09 04:35:37;;;;;;;4.20;1.73;;;;;;;1.66;100.00;99636.66;5027164;28;20060;-83
2022/04/09 04:38:04;;;;;;;6.32;1.70;;;;;;;1.72;100.00;99641.88;5036669;28;20344;-83
2022/04/09 04:40:31;;;;;;;7.07;2.50;;;;;;;1.77;100.00;99634.16;5037542;28;20429;-83
2022/04/09 04:42:57;;;;;;;6.35;1.75;;;;;;;1.80;100.00;99645.41;5034733;28;20049;-82
2022/04/09 04:45:24;;;;;;;7.60;2.40;;;;;;;1.83;100.00;99654.88;5025440;28;20087;-82
2022/04/09 04:47:50;;;;;;;6.95;3.50;;;;;;;1.89;100.00;99654.06;5027715;28;20049;-82
2022/04/09 04:50:19;;;;;;;15.40;2.40;;;;;;;1.89;100.00;99657.53;5051193;28;20152;-82
2022/04/09 04:52:46;;;;;;;9.93;2.00;;;;;;;1.82;100.00;99663.47;5020479;28;20049;-82
2022/04/09 04:55:14;;;;;;;7.47;1.73;;;;;;;1.75;100.00;99667.69;5052707;28;20057;-82
2022/04/09 04:57:46;;;;;;;17.15;1.77;;;;;;;1.68;100.00;99667.63;5022144;28;20049;-82
2022/04/09 05:00:16;;;;;;;5.80;2.63;;;;;;;1.62;100.00;99679.59;5029835;28;20045;-82
2022/04/09 05:02:43;;;;;;;7.47;1.60;;;;;;;1.61;100.00;99670.13;5024096;28;20091;-82
2022/04/09 05:05:10;;;;;;;3.53;1.33;;;;;;;1.62;100.00;99681.31;5020323;28;20056;-82
2022/04/09 05:07:45;;;;;;;13.30;2.85;;;;;;;1.63;100.00;99688.19;5015939;28;20055;-82
2022/04/09 05:10:23;;;;;;;12.02;3.40;;;;;;;1.68;100.00;99696.00;5022794;28;20049;-83
2022/04/09 05:12:54;;;;;;;4.72;3.35;;;;;;;1.69;100.00;99692.56;5020719;28;20053;-82
2022/04/09 05:15:21;;;;;;;5.50;2.05;;;;;;;1.74;100.00;99690.91;5024461;28;20098;-82
2022/04/09 05:17:47;;;;;;;6.53;2.08;;;;;;;1.76;100.00;99700.41;5022131;28;20048;-82
2022/04/09 05:20:17;;;;;;;8.00;3.45;;;;;;;1.75;100.00;99702.97;5019126;28;20059;-82
2022/04/09 05:22:46;;;;;;;8.60;2.25;;;;;;;1.80;100.00;99703.91;5019068;28;20037;-83
2022/04/09 05:25:15;;;;;;;7.38;1.83;;;;;;;1.87;100.00;99716.00;5019513;28;20057;-83
2022/04/09 05:27:43;;;;;;;9.70;2.63;;;;;;;1.89;100.00;99716.91;5035763;28;20045;-82
2022/04/09 05:30:10;;;;;;;3.65;1.92;;;;;;;1.91;100.00;99712.59;5038184;28;20038;-82
2022/04/09 05:32:39;;;;;;;6.18;1.95;;;;;;;1.93;100.00;99715.19;5037689;28;20085;-82
2022/04/09 05:35:10;;;;;;;5.72;2.13;;;;;;;2.03;100.00;99723.91;5023223;28;20064;-82
2022/04/09 05:37:36;;;;;;;3.80;1.70;;;;;;;2.13;100.00;99725.75;5037390;28;20045;-82
2022/04/09 05:40:05;;;;;;;12.18;3.42;;;;;;;2.23;100.00;99719.84;5021871;28;20136;-82
2022/04/09 05:42:32;;;;;;;6.90;1.98;;;;;;;2.39;100.00;99738.91;5031974;28;20055;-82
2022/04/09 05:44:58;;;;;;;6.25;2.30;;;;;;;2.56;100.00;99741.66;5020470;28;20037;-82
2022/04/09 05:47:26;;;;;;;11.15;2.53;;;;;;;2.65;100.00;99736.56;5024263;28;20072;-82
2022/04/09 05:49:52;;;;;;;6.13;3.45;;;;;;;2.60;100.00;99752.88;5035562;28;20384;-82
2022/04/09 05:52:19;;;;;;;3.17;1.58;;;;;;;2.65;100.00;99749.47;5019756;28;20055;-83
2022/04/09 05:54:45;;;;;;;5.97;1.95;;;;;;;2.78;100.00;99758.19;5017361;28;20128;-83
2022/04/09 05:57:12;;;;;;;6.13;2.00;;;;;;;2.91;100.00;99761.75;5019374;28;20067;-83
2022/04/09 05:59:39;;;;;;;7.65;2.78;;;;;;;2.93;100.00;99766.94;5024860;28;20127;-83
2022/04/09 06:02:07;;;;;;;9.02;1.55;;;;;;;2.87;100.00;99769.47;5038238;28;20056;-83
2022/04/09 06:04:33;;;;;;;5.40;2.08;;;;;;;2.84;100.00;99777.19;5013706;28;20436;-82
2022/04/09 06:07:02;;;;;;;6.25;2.08;;;;;;;2.85;100.00;99784.97;5037482;28;20065;-82
2022/04/09 06:09:29;;;;;;;7.47;1.98;;;;;;;2.96;98.97;99782.50;5035993;28;20045;-83
2022/04/09 06:11:56;;;;;;;7.97;2.67;;;;;;;3.05;97.57;99786.84;5019771;28;20053;-82
2022/04/09 06:14:22;;;;;;;12.32;2.08;;;;;;;3.10;97.75;99796.38;5021351;28;20053;-82
2022/04/09 06:16:50;;;;;;;4.38;1.85;;;;;;;3.07;98.13;99801.53;5028308;28;20044;-83
2022/04/09 06:19:16;;;;;;;7.13;1.38;;;;;;;3.14;98.66;99807.59;5039669;28;20037;-82
2022/04/09 06:21:43;;;;;;;6.30;1.38;;;;;;;3.21;98.50;99809.38;5020334;28;20053;-82
2022/04/09 06:24:10;;;;;;;8.43;1.98;;;;;;;3.28;98.57;99805.97;5023610;28;20045;-83
2022/04/09 06:26:36;;;;;;;4.43;1.33;;;;;;;3.31;97.49;99811.19;4991482;28;20132;-83
2022/04/09 06:29:04;;;;;;;3.05;1.80;;;;;;;3.29;97.78;99812.03;5023889;28;20130;-83
2022/04/09 06:31:30;;;;;;;3.25;1.33;;;;;;;3.36;97.14;99820.69;5022947;28;20166;-83
2022/04/09 06:33:56;;;;;;;11.20;2.22;;;;;;;3.42;96.87;99824.19;5008689;28;20068;-83
2022/04/09 06:36:23;;;;;;;5.13;2.08;;;;;;;3.64;95.39;99819.16;5026495;28;20139;-83
2022/04/09 06:38:50;;;;;;;6.28;2.00;;;;;;;3.76;94.43;99820.94;5010534;28;20131;-83
2022/04/09 06:41:18;;;;;;;3.33;1.13;;;;;;;3.91;93.51;99826.22;5022663;28;20495;-82
2022/04/09 06:43:46;;;;;;;4.97;1.88;;;;;;;4.16;91.65;99828.91;5002370;28;20057;-82
2022/04/09 06:46:13;;;;;;;7.22;1.98;;;;;;;4.41;90.59;99836.78;5025657;28;20064;-82
2022/04/09 06:48:39;;;;;;;7.53;2.10;;;;;;;4.56;88.26;99828.16;5010418;28;20483;-83
2022/04/09 06:51:06;;;;;;;3.80;1.25;;;;;;;4.66;86.81;99844.59;5004619;28;20060;-82
2022/04/09 06:53:32;;;;;;;5.88;1.23;;;;;;;4.77;85.87;99843.75;5004264;28;20048;-83
2022/04/09 06:55:59;;;;;;;10.73;1.45;;;;;;;5.00;86.23;99840.31;5019178;28;20045;-83
2022/04/09 06:58:26;;;;;;;10.77;1.70;;;;;;;5.10;83.81;99848.97;5022423;28;20049;-83
2022/04/09 07:00:52;;;;;;;3.20;0.90;;;;;;;5.08;83.63;99848.09;5025248;28;20045;-83
2022/04/09 07:03:19;;;;;;;5.07;1.67;;;;;;;5.30;82.40;99846.38;5024478;28;20875;-83
2022/04/09 07:05:45;;;;;;;2.72;1.42;;;;;;;5.33;82.65;99855.88;5021805;28;20463;-83
2022/04/09 07:08:12;;;;;;;7.10;1.30;;;;;;;5.56;81.44;99853.28;5008713;28;20080;-83
2022/04/09 07:10:38;;;;;;;6.18;1.08;;;;;;;5.81;79.02;99859.28;5005237;28;20314;-83
2022/04/09 07:13:06;;;;;;;4.78;1.15;;;;;;;5.85;78.63;99867.94;5019157;28;20048;-83
2022/04/09 07:15:34;;;;;;;11.02;1.42;;;;;;;6.05;77.45;99867.91;5018793;28;20113;-83
2022/04/09 07:18:00;;;;;;;5.05;1.83;;;;;;;6.19;75.86;99873.06;5006627;28;20168;-83
2022/04/09 07:20:27;;;;;;;4.07;1.02;;;;;;;5.99;75.97;99866.19;5027878;28;20059;-83
2022/04/09 07:22:54;;;;;;;5.32;1.25;;;;;;;6.17;76.24;99878.28;5033527;28;20068;-83
2022/04/09 07:25:20;;;;;;;6.25;1.17;;;;;;;6.23;74.94;99883.47;5017348;28;20059;-82
2022/04/09 07:27:49;;;;;;;3.28;1.10;;;;;;;6.39;73.47;99878.22;5022016;28;20136;-83
2022/04/09 07:30:19;;;;;;;10.23;1.50;;;;;;;6.53;72.52;99878.13;5022276;28;20060;-83
2022/04/09 07:32:50;;;;;;;11.07;2.65;;;;;;;6.35;72.76;99886.88;5024487;28;20045;-83
2022/04/09 07:35:17;;;;;;;3.47;1.42;;;;;;;6.13;73.84;99884.34;5019845;28;20360;-83
2022/04/09 07:37:51;;;;;;;5.45;1.45;;;;;;;6.74;71.30;99888.44;5018848;28;20045;-83
2022/04/09 07:40:20;;;;;;;4.18;1.45;;;;;;;7.07;70.14;99886.47;5036863;28;20045;-83
2022/04/09 07:42:48;;;;;;;6.20;1.23;;;;;;;7.05;69.29;99895.16;5022128;28;20693;-83
2022/04/09 07:45:16;;;;;;;5.75;1.10;;;;;;;6.67;70.63;99896.25;5041385;28;20487;-83
2022/04/09 07:47:44;;;;;;;5.82;1.20;;;;;;;6.85;70.13;99901.34;5034704;28;20048;-84
2022/04/09 07:50:12;;;;;;;4.47;1.13;;;;;;;6.98;69.51;99901.31;5038340;28;20442;-83
2022/04/09 07:52:43;;;;;;;6.20;1.08;;;;;;;6.88;69.52;99903.97;5037595;28;20044;-83
2022/04/09 07:55:16;;;;;;;5.30;1.38;;;;;;;6.79;70.99;99910.06;5020069;28;20541;-83
2022/04/09 07:57:45;;;;;;;6.47;1.48;;;;;;;6.88;70.93;99922.19;5039205;28;20061;-83
2022/04/09 08:00:13;;;;;;;4.03;1.45;;;;;;;6.96;69.77;99909.09;5026026;28;20057;-83
2022/04/09 08:02:39;;;;;;;5.88;1.45;;;;;;;7.01;69.24;99911.69;5038361;28;20166;-83
2022/04/09 08:05:07;;;;;;;8.50;1.90;;;;;;;7.00;69.65;99912.53;5040400;28;20053;-83
2022/04/09 08:07:34;;;;;;;1.98;0.95;;;;;;;7.11;69.60;99916.81;5017655;28;20139;-83
2022/04/09 08:10:00;;;;;;;3.83;1.20;;;;;;;7.28;68.94;99916.69;5024358;28;20056;-83
2022/04/09 08:12:27;;;;;;;6.80;1.42;;;;;;;7.72;67.75;99916.34;5024992;28;20119;-83
2022/04/09 08:14:53;;;;;;;4.90;1.42;;;;;;;8.18;64.97;99912.41;5039695;28;20037;-83
2022/04/09 08:17:20;;;;;;;3.35;1.20;;;;;;;8.24;65.33;99912.34;5039587;28;20128;-83
2022/04/09 08:19:48;;;;;;;4.95;1.02;;;;;;;7.91;63.96;99919.63;5021369;28;20072;-84
2022/04/09 08:22:16;;;;;;;6.03;0.85;;;;;;;7.39;66.19;99934.84;5039017;28;20136;-83
2022/04/09 08:24:43;;;;;;;3.30;1.02;;;;;;;7.62;66.49;99929.44;5037706;28;20045;-83
2022/04/09 08:27:09;;;;;;;6.13;1.10;;;;;;;8.26;64.18;99932.28;5038010;28;20053;-84
2022/04/09 08:29:36;;;;;;;8.10;1.25;;;;;;;9.44;59.05;99917.72;5026308;28;20227;-83
2022/04/09 08:32:05;;;;;;;6.90;1.48;;;;;;;9.29;58.11;99929.25;5026638;28;20044;-83
2022/04/09 08:34:35;;;;;;;4.63;0.77;;;;;;;8.75;58.95;99925.66;5037686;28;20088;-83
2022/04/09 08:37:06;;;;;;;3.75;1.13;;;;;;;8.39;60.95;99938.22;5022870;28;20052;-83
2022/04/09 08:39:34;;;;;;;4.88;1.00;;;;;;;8.20;60.78;99931.50;5039050;28;20061;-83
2022/04/09 08:42:03;;;;;;;3.85;0.70;;;;;;;7.76;61.86;99923.25;5008927;28;20511;-83
2022/04/09 08:44:35;;;;;;;4.03;1.27;;;;;;;8.03;61.42;99952.53;5041558;28;20159;-83
2022/04/09 08:47:02;;;;;;;5.28;1.05;;;;;;;7.89;61.38;99943.09;5032212;28;20045;-83
2022/04/09 08:49:35;;;;;;;3.13;0.70;;;;;;;8.30;60.65;99940.94;5023059;28;20540;-84
2022/04/09 08:52:02;;;;;;;3.07;1.60;;;;;;;8.44;60.27;99953.84;5038545;28;20076;-83
2022/04/09 08:54:31;;;;;;;5.05;1.17;;;;;;;8.85;59.00;99951.63;5037144;28;20287;-83
2022/04/09 08:56:58;;;;;;;2.58;0.52;;;;;;;8.59;59.50;99953.69;5023910;28;20471;-83
2022/04/09 08:59:26;;;;;;;4.28;1.20;;;;;;;8.23;60.93;99966.22;5029365;28;20048;-83
2022/04/09 09:01:53;;;;;;;5.43;1.17;;;;;;;7.96;62.34;99962.16;5008843;28;20057;-83
2022/04/09 09:04:19;;;;;;;2.28;1.13;;;;;;;8.95;59.01;99953.25;5022162;28;20386;-83
2022/04/09 09:06:46;;;;;;;4.50;0.80;;;;;;;9.18;57.20;99965.13;5023135;28;20059;-83
2022/04/09 09:09:32;;;;;;;3.05;0.80;;;;;;;9.32;55.79;99965.78;5039183;28;20049;-83
2022/04/09 09:12:03;;;;;;;5.07;0.88;;;;;;;8.97;56.87;99967.16;5036113;28;20102;-83
2022/04/09 09:14:33;;;;;;;3.63;1.08;;;;;;;8.60;56.75;99976.31;5024360;28;20131;-84
2022/04/09 09:17:02;;;;;;;3.03;0.88;;;;;;;8.91;56.33;99977.66;5021539;28;20169;-82
2022/04/09 09:19:50;;;;;;;5.18;1.13;;;;;;;9.55;54.46;99965.41;5026789;28;20068;-83
2022/04/09 09:22:17;;;;;;;3.58;0.75;;;;;;;10.78;51.29;99968.47;5018493;28;20048;-84
2022/04/09 09:24:44;;;;;;;2.00;0.75;;;;;;;11.47;45.80;99966.94;5034888;28;20614;-84
2022/04/09 09:27:11;;;;;;;3.78;1.00;;;;;;;11.65;45.27;99975.25;5041489;28;20045;-84
2022/04/09 09:29:39;;;;;;;3.80;1.10;;;;;;;11.78;46.04;99967.94;5025827;28;20102;-83
2022/04/09 09:32:07;;;;;;;2.72;0.98;;;;;;;11.43;46.93;99962.66;5023803;28;20053;-83
2022/04/09 09:34:34;;;;;;;2.13;0.90;;;;;;;11.29;48.02;99968.22;5021540;28;20045;-83
2022/04/09 09:37:00;;;;;;;1.50;0.55;;;;;;;10.81;49.08;99979.75;5040488;28;20037;-83
2022/04/09 09:39:28;;;;;;;7.18;0.68;;;;;;;9.99;50.93;99985.63;5036561;28;20136;-83
2022/04/09 09:42:02;;;;;;;1.98;0.82;;;;;;;9.36;52.85;99987.47;5039225;28;20055;-83
2022/04/09 09:44:31;;;;;;;4.82;1.13;;;;;;;9.59;52.66;99980.19;5040301;28;20437;-82
2022/04/09 09:47:07;;;;;;;2.60;0.57;;;;;;;11.14;49.27;99968.56;5021399;28;20045;-83
2022/04/09 09:49:47;;;;;;;1.92;0.70;;;;;;;11.64;47.34;99974.41;5038382;28;20072;-83
2022/04/09 09:52:15;;;;;;;8.75;0.63;;;;;;;10.84;48.22;99971.81;5028650;28;20052;-83
2022/04/09 09:54:56;;;;;;;4.43;0.77;;;;;;;10.08;51.14;99988.09;5024756;28;20053;-84
2022/04/09 09:57:26;;;;;;;1.05;0.75;;;;;;;9.64;53.26;99993.16;5021456;28;20067;-82
2022/04/09 09:59:55;;;;;;;1.35;0.70;;;;;;;9.90;52.32;99989.25;5040201;28;20531;-84
2022/04/09 10:02:23;;;;;;;4.10;0.70;;;;;;;9.63;53.25;99999.25;5039674;28;20045;-84
2022/04/09 10:04:52;;;;;;;2.72;0.65;;;;;;;9.00;58.40;100031.50;5040753;28;20037;-83
2022/04/09 10:07:20;;;;;;;1.67;0.60;;;;;;;7.88;66.93;100043.00;5058174;28;20041;-81
2022/04/09 10:09:49;;;;;;;2.55;0.52;;;;;;;6.84;73.64;100034.06;5023454;28;20079;-83
2022/04/09 10:12:24;;;;;;;1.65;0.20;;;;;;;6.59;77.58;100028.94;5037923;28;20045;-82
2022/04/09 10:14:56;;;;;;;0.98;0.10;;;;;;;7.76;73.89;100022.25;5036640;28;20052;-82
2022/04/09 10:17:24;;;;;;;0.73;0.30;;;;;;;9.63;66.86;100019.31;5039748;28;20045;-83
2022/04/09 10:19:57;;;;;;;3.78;0.60;;;;;;;11.38;59.61;100011.69;5037875;28;20107;-84
2022/04/09 10:22:28;;;;;;;2.08;0.55;;;;;;;12.74;55.36;100009.16;5020590;28;20293;-81
2022/04/09 10:24:56;;;;;;;1.65;0.70;;;;;;;12.40;53.78;100009.22;5034321;28;20037;-81
2022/04/09 10:27:44;;;;;;;3.65;0.57;;;;;;;10.84;57.87;100028.56;5052238;28;20499;-82
2022/04/09 10:30:14;;;;;;;1.48;0.20;;;;;;;9.56;60.22;100031.63;5038371;28;20176;-82
2022/04/09 10:32:42;;;;;;;0.75;0.22;;;;;;;8.94;63.26;100035.03;5041143;28;20663;-82
2022/04/09 10:35:38;;;;;;;0.93;0.35;;;;;;;10.29;58.21;100026.06;5051175;28;20049;-84
2022/04/09 10:38:08;;;;;;;1.25;0.52;;;;;;;12.08;52.75;100019.69;5020866;28;20053;-83
2022/04/09 10:40:36;;;;;;;0.63;0.45;;;;;;;13.78;49.35;100013.97;5038225;28;20415;-82
2022/04/09 10:43:05;;;;;;;3.47;0.32;;;;;;;15.44;45.06;100003.66;5018869;28;20060;-82
2022/04/09 10:45:32;;;;;;;1.67;0.50;;;;;;;16.79;42.30;100004.19;5038324;28;20064;-84
2022/04/09 10:48:10;;;;;;;1.88;0.57;;;;;;;17.68;40.59;100004.44;5037753;28;20142;-82
2022/04/09 10:51:09;;;;;;;2.35;0.40;;;;;;;17.72;40.58;100006.94;5038853;28;20060;-84
2022/04/09 10:53:50;;;;;;;1.88;0.70;;;;;;;15.85;42.99;100001.16;5032968;28;20107;-82
2022/04/09 10:56:27;;;;;;;3.08;0.60;;;;;;;13.73;46.95;100005.38;5009010;28;20056;-83
2022/04/09 10:59:13;;;;;;;1.00;0.80;;;;;;;11.90;50.43;100026.19;5032189;28;20060;-84
2022/04/09 11:01:46;;;;;;;3.05;1.67;;;;;;;10.41;57.37;100072.97;5038012;28;20045;-82
2022/04/09 11:04:28;;;;;;;1.67;0.65;;;;;;;8.80;64.79;100097.84;5031649;28;20328;-82
2022/04/09 11:07:05;;;;;;;2.45;0.63;;;;;;;7.19;72.76;100088.56;5028160;28;20042;-82
2022/04/09 11:09:57;;;;;;;2.53;0.63;;;;;;;6.37;78.31;100085.31;5024628;28;20377;-82
2022/04/09 11:12:30;;;;;;;1.92;0.35;;;;;;;5.93;81.88;100077.47;5037257;28;20052;-83
2022/04/09 11:15:02;;;;;;;0.63;0.40;;;;;;;6.53;81.00;100078.34;5025387;28;20063;-82
2022/04/09 11:17:34;;;;;;;2.33;1.05;;;;;;;7.99;73.17;100070.72;5041355;28;20068;-83
2022/04/09 11:20:18;;;;;;;1.77;0.88;;;;;;;9.73;68.44;100057.50;5022055;28;20140;-83
2022/04/09 11:22:56;;;;;;;2.60;0.65;;;;;;;11.67;59.27;100054.75;5027146;28;20059;-82
2022/04/09 11:25:28;;;;;;;0.35;0.35;;;;;;;13.21;53.23;100050.72;5022771;28;20045;-83
2022/04/09 11:28:18;;;;;;;0.82;0.30;;;;;;;14.27;48.80;100047.44;5028405;28;20049;-83
2022/04/09 11:30:58;;;;;;;1.95;0.30;;;;;;;14.64;48.28;100041.78;5043546;28;20098;-82
2022/04/09 11:33:25;;;;;;;0.47;0.22;;;;;;;15.36;46.38;100038.25;5039257;28;20114;-83
2022/04/09 11:35:52;;;;;;;4.85;0.80;;;;;;;15.84;44.59;100032.91;5025995;28;20049;-83
2022/04/09 11:38:19;;;;;;;0.95;0.60;;;;;;;16.70;43.89;100037.16;5036959;28;20075;-83
2022/04/09 11:40:47;;;;;;;1.70;0.50;;;;;;;16.87;41.52;100028.47;5022215;28;20061;-83